Time;durP1;ratioP1;P1;durP2;ratioP2;P2;SDS_P1;SDS_P2;PMS_P1;PMS_P2;Temp;Humidity;BMP_temperature;BMP_pressure;BME280_temperature;BME280_humidity;BME280_pressure;Samples;Min_cycle;Max_cycle;Signal;HPM_P1;HPM_P2
2023/03/07 00:01:30;;;;;;;15.90;8.05;;;3.40;77.70;;;;;;5016829;28;20040;-81
2023/03/07 00:03:56;;;;;;;17.13;8.65;;;3.40;78.50;;;;;;5032473;28;20041;-78
2023/03/07 00:06:21;;;;;;;16.10;9.13;;;3.40;77.80;;;;;;5008683;28;20120;-77
2023/03/07 00:08:55;;;;;;;17.77;9.38;;;3.40;77.90;;;;;;5028009;28;20185;-80
2023/03/07 00:11:21;;;;;;;15.27;8.70;;;3.30;77.90;;;;;;5020350;28;20724;-80
2023/03/07 00:13:47;;;;;;;16.70;8.90;;;3.30;77.80;;;;;;5039983;28;20041;-80
2023/03/07 00:16:14;;;;;;;19.58;10.05;;;3.30;77.80;;;;;;5006541;28;20043;-79
2023/03/07 00:18:40;;;;;;;16.85;8.82;;;3.30;77.90;;;;;;5006799;28;20044;-78
2023/03/07 00:21:07;;;;;;;16.85;8.68;;;3.30;77.90;;;;;;5025446;28;20037;-81
2023/03/07 00:23:33;;;;;;;16.17;8.68;;;3.30;78.00;;;;;;5016219;28;20047;-79
2023/03/07 00:26:02;;;;;;;17.23;9.07;;;3.30;78.00;;;;;;4986399;28;20048;-78
2023/03/07 00:28:28;;;;;;;15.02;8.40;;;3.30;78.00;;;;;;5013425;28;20045;-80
2023/03/07 00:30:54;;;;;;;16.85;9.73;;;3.30;78.10;;;;;;4999107;28;21069;-79
2023/03/07 00:33:20;;;;;;;18.55;9.93;;;3.30;78.00;;;;;;5027077;28;20047;-79
2023/03/07 00:35:54;;;;;;;17.65;9.00;;;3.30;78.00;;;;;;5026440;28;20060;-80
2023/03/07 00:38:19;;;;;;;18.58;9.05;;;3.30;78.10;;;;;;5007174;28;20037;-78
2023/03/07 00:40:45;;;;;;;19.58;9.80;;;3.30;78.10;;;;;;4985588;28;20029;-79
2023/03/07 00:43:11;;;;;;;20.50;10.32;;;3.30;78.00;;;;;;4999438;28;20120;-80
2023/03/07 00:45:36;;;;;;;15.80;8.43;;;3.30;78.10;;;;;;5029536;28;20037;-79
2023/03/07 00:48:02;;;;;;;17.73;9.48;;;3.30;78.10;;;;;;5025480;28;20040;-79
2023/03/07 00:50:27;;;;;;;19.85;9.52;;;3.30;78.20;;;;;;5004334;28;20029;-79
2023/03/07 00:52:53;;;;;;;16.70;9.02;;;3.20;78.10;;;;;;5019778;28;20044;-79
2023/03/07 00:55:19;;;;;;;19.85;9.07;;;3.20;78.20;;;;;;5037822;28;20021;-79
2023/03/07 00:57:44;;;;;;;19.02;9.32;;;3.20;78.20;;;;;;5056357;28;20056;-80
2023/03/07 01:00:10;;;;;;;17.42;9.63;;;3.20;78.10;;;;;;5041457;28;20036;-78
2023/03/07 01:02:36;;;;;;;19.55;9.57;;;3.20;78.20;;;;;;5006281;28;20071;-80
2023/03/07 01:05:02;;;;;;;19.10;9.65;;;3.20;78.10;;;;;;5020092;28;20068;-80
2023/03/07 01:07:27;;;;;;;18.95;9.90;;;3.20;78.10;;;;;;5022114;28;20041;-79
2023/03/07 01:09:53;;;;;;;22.83;10.10;;;3.30;78.20;;;;;;5035578;28;20024;-79
2023/03/07 01:12:19;;;;;;;21.00;9.38;;;3.30;78.20;;;;;;5011610;28;20110;-80
2023/03/07 01:14:44;;;;;;;17.83;9.50;;;3.30;78.10;;;;;;5054395;28;22377;-80
2023/03/07 01:17:10;;;;;;;17.08;9.48;;;3.30;78.10;;;;;;5051828;28;21548;-79
2023/03/07 01:19:35;;;;;;;18.20;9.43;;;3.30;78.10;;;;;;5048828;28;20029;-78
2023/03/07 01:22:01;;;;;;;17.13;9.10;;;3.30;78.10;;;;;;5052690;28;20049;-80
2023/03/07 01:24:27;;;;;;;21.23;9.73;;;3.30;78.10;;;;;;5021951;28;20037;-78
2023/03/07 01:26:52;;;;;;;17.90;9.27;;;3.30;78.10;;;;;;5034556;28;20041;-79
2023/03/07 01:29:18;;;;;;;21.05;9.88;;;3.30;78.10;;;;;;5011460;28;20033;-80
2023/03/07 01:31:43;;;;;;;18.35;10.02;;;3.30;78.10;;;;;;5033840;28;20594;-81
2023/03/07 01:34:09;;;;;;;21.17;9.10;;;3.30;78.10;;;;;;5017259;28;20050;-79
2023/03/07 01:36:35;;;;;;;18.73;10.02;;;3.30;78.10;;;;;;4983908;28;20049;-78
2023/03/07 01:39:13;;;;;;;20.52;9.52;;;3.30;78.20;;;;;;5013669;28;20037;-79
2023/03/07 01:41:39;;;;;;;23.58;11.10;;;3.30;78.30;;;;;;4993971;28;20112;-77
2023/03/07 01:44:15;;;;;;;18.00;9.43;;;3.30;78.30;;;;;;5014028;28;20041;-78
2023/03/07 01:46:43;;;;;;;21.33;10.35;;;3.30;78.40;;;;;;4997301;28;20037;-78
2023/03/07 01:49:18;;;;;;;21.25;10.35;;;3.20;78.40;;;;;;4982440;28;21491;-80
2023/03/07 01:51:46;;;;;;;18.77;9.02;;;3.20;78.50;;;;;;4994577;28;20560;-80
2023/03/07 01:54:12;;;;;;;20.83;10.45;;;3.20;78.50;;;;;;5009022;28;20026;-78
2023/03/07 01:56:38;;;;;;;20.75;10.55;;;3.20;78.50;;;;;;4978699;28;20045;-79
2023/03/07 01:59:04;;;;;;;23.52;11.38;;;3.20;78.70;;;;;;4982472;28;20103;-77
2023/03/07 02:01:29;;;;;;;20.00;9.88;;;3.20;78.80;;;;;;5011194;28;20061;-78
2023/03/07 02:04:07;;;;;;;19.25;9.80;;;3.20;78.80;;;;;;4996328;28;20065;-79
2023/03/07 02:06:33;;;;;;;18.88;8.98;;;3.20;78.90;;;;;;4996574;28;20116;-80
2023/03/07 02:08:58;;;;;;;20.15;10.43;;;3.20;78.90;;;;;;4990910;28;20129;-78
2023/03/07 02:11:24;;;;;;;20.17;10.23;;;3.20;79.00;;;;;;4970671;28;20096;-77
2023/03/07 02:13:49;;;;;;;19.17;9.52;;;3.20;79.10;;;;;;4978353;28;20072;-79
2023/03/07 02:16:15;;;;;;;20.75;10.15;;;3.20;79.10;;;;;;5004552;28;20136;-78
2023/03/07 02:18:44;;;;;;;21.05;10.45;;;3.20;79.10;;;;;;4984394;28;20026;-77
2023/03/07 02:21:31;;;;;;;22.00;9.77;;;3.20;79.20;;;;;;5012543;28;20057;-78
2023/03/07 02:24:10;;;;;;;20.58;10.25;;;3.20;79.30;;;;;;4996518;28;20118;-80
2023/03/07 02:26:42;;;;;;;18.60;8.95;;;3.20;79.40;;;;;;4981584;28;20030;-79
2023/03/07 02:29:08;;;;;;;18.42;9.75;;;3.20;79.40;;;;;;4994445;28;20038;-78
2023/03/07 02:31:34;;;;;;;22.40;10.90;;;3.20;79.30;;;;;;4992969;28;20545;-80
2023/03/07 02:33:59;;;;;;;19.20;9.57;;;3.20;79.40;;;;;;5014943;28;20033;-80
2023/03/07 02:36:27;;;;;;;23.40;10.25;;;3.20;79.50;;;;;;4994156;28;20042;-79
2023/03/07 02:38:53;;;;;;;21.13;10.15;;;3.20;79.60;;;;;;5029620;28;20048;-78
2023/03/07 02:41:21;;;;;;;20.55;10.02;;;3.20;79.60;;;;;;5016739;28;20574;-78
2023/03/07 02:43:46;;;;;;;18.05;9.25;;;3.20;79.70;;;;;;5018091;28;20083;-79
2023/03/07 02:46:12;;;;;;;21.05;10.25;;;3.20;79.80;;;;;;5013940;28;20052;-79
2023/03/07 02:48:37;;;;;;;21.50;10.48;;;3.20;79.80;;;;;;4999243;28;20119;-79
2023/03/07 02:51:03;;;;;;;20.75;10.23;;;3.20;79.80;;;;;;5032398;28;20041;-79
2023/03/07 02:53:29;;;;;;;18.38;10.32;;;3.20;79.80;;;;;;5013262;28;20454;-78
2023/03/07 02:55:54;;;;;;;20.27;10.02;;;3.20;79.90;;;;;;5007447;28;20755;-79
2023/03/07 02:58:20;;;;;;;19.17;10.70;;;3.20;80.00;;;;;;5017381;28;20308;-80
2023/03/07 03:00:45;;;;;;;22.25;10.15;;;3.10;79.90;;;;;;5029393;28;20037;-80
2023/03/07 03:03:11;;;;;;;21.90;9.88;;;3.10;80.00;;;;;;5031110;28;20791;-80
2023/03/07 03:05:36;;;;;;;21.98;10.88;;;3.10;80.00;;;;;;5026060;28;20043;-79
2023/03/07 03:08:02;;;;;;;17.27;9.07;;;3.10;80.00;;;;;;5003017;28;20037;-79
2023/03/07 03:10:27;;;;;;;17.70;9.00;;;3.10;80.20;;;;;;5034063;28;20033;-81
2023/03/07 03:12:53;;;;;;;24.48;9.73;;;3.10;80.20;;;;;;5030624;28;20056;-81
2023/03/07 03:15:19;;;;;;;24.52;10.40;;;3.10;80.30;;;;;;5017594;28;20056;-77
2023/03/07 03:17:45;;;;;;;20.23;9.65;;;3.10;80.30;;;;;;5029641;28;20044;-78
2023/03/07 03:20:11;;;;;;;23.70;10.93;;;3.10;80.30;;;;;;5031028;28;20037;-79
2023/03/07 03:22:40;;;;;;;21.60;10.02;;;3.10;80.40;;;;;;5012442;28;20285;-79
2023/03/07 03:25:08;;;;;;;20.35;9.77;;;3.10;80.50;;;;;;5030945;28;20045;-80
2023/03/07 03:27:34;;;;;;;19.08;9.40;;;3.10;80.50;;;;;;5014763;28;20038;-81
2023/03/07 03:29:59;;;;;;;21.27;9.43;;;3.10;80.50;;;;;;4993880;28;20037;-80
2023/03/07 03:32:25;;;;;;;18.80;9.68;;;3.10;80.60;;;;;;5001787;28;20041;-79
2023/03/07 03:34:51;;;;;;;19.98;10.68;;;3.10;81.40;;;;;;5013872;28;20115;-80
2023/03/07 03:37:16;;;;;;;19.13;9.35;;;3.10;80.70;;;;;;5003091;28;20104;-79
2023/03/07 03:39:42;;;;;;;21.20;9.63;;;3.10;80.80;;;;;;4982732;28;20033;-79
2023/03/07 03:42:07;;;;;;;20.08;10.55;;;3.10;80.80;;;;;;4995611;28;20045;-77
2023/03/07 03:44:33;;;;;;;17.73;9.40;;;3.10;80.80;;;;;;5007226;28;20037;-80
2023/03/07 03:46:58;;;;;;;19.10;9.98;;;3.10;80.90;;;;;;5000003;28;20038;-80
2023/03/07 03:49:24;;;;;;;20.50;9.80;;;3.10;81.70;;;;;;4985620;28;20043;-78
2023/03/07 03:51:49;;;;;;;20.45;10.43;;;3.10;80.90;;;;;;4997289;28;20500;-79
2023/03/07 03:54:15;;;;;;;22.52;11.05;;;3.10;80.90;;;;;;4986271;28;20034;-81
2023/03/07 03:56:41;;;;;;;17.98;9.25;;;3.10;81.00;;;;;;4995910;28;20053;-80
2023/03/07 03:59:06;;;;;;;18.30;9.40;;;3.10;81.10;;;;;;4970914;28;20038;-78
2023/03/07 04:01:32;;;;;;;18.85;9.35;;;3.10;81.10;;;;;;4962409;28;20437;-80
2023/03/07 04:03:58;;;;;;;18.08;9.60;;;3.20;81.20;;;;;;4990261;28;20125;-77
2023/03/07 04:06:28;;;;;;;19.02;9.52;;;3.10;81.20;;;;;;5000637;28;20065;-80
2023/03/07 04:08:54;;;;;;;18.95;9.60;;;3.10;81.30;;;;;;4989444;28;20092;-79
2023/03/07 04:11:20;;;;;;;20.85;9.77;;;3.10;81.30;;;;;;5004851;28;20042;-78
2023/03/07 04:13:45;;;;;;;29.77;15.90;;;3.10;81.30;;;;;;4997560;28;20042;-78
2023/03/07 04:16:11;;;;;;;18.38;9.88;;;3.10;81.40;;;;;;4997909;28;20036;-80
2023/03/07 04:18:37;;;;;;;18.67;10.88;;;3.10;81.40;;;;;;4985424;28;20048;-77
2023/03/07 04:21:04;;;;;;;72.90;38.72;;;3.10;81.40;;;;;;4993622;28;20096;-81
2023/03/07 04:23:30;;;;;;;57.63;29.67;;;3.10;81.50;;;;;;5007056;28;20183;-80
2023/03/07 04:25:56;;;;;;;24.65;14.23;;;3.10;81.60;;;;;;5005979;28;20124;-78
2023/03/07 04:28:23;;;;;;;28.60;14.25;;;3.10;81.60;;;;;;5012815;28;20030;-79
2023/03/07 04:30:49;;;;;;;26.48;13.07;;;3.10;81.70;;;;;;4996786;28;20057;-77
2023/03/07 04:33:15;;;;;;;23.92;12.70;;;3.10;81.70;;;;;;5003661;28;20575;-80
2023/03/07 04:35:40;;;;;;;33.55;19.40;;;3.20;81.90;;;;;;5016491;28;20095;-78
2023/03/07 04:38:06;;;;;;;20.17;10.60;;;3.10;81.90;;;;;;5001816;28;20375;-80
2023/03/07 04:40:33;;;;;;;19.58;10.52;;;3.10;81.90;;;;;;5006227;28;20029;-82
2023/03/07 04:42:58;;;;;;;20.90;10.75;;;3.10;82.00;;;;;;5016862;28;20030;-80
2023/03/07 04:45:24;;;;;;;17.33;9.63;;;3.10;82.00;;;;;;5002195;28;20868;-79
2023/03/07 04:47:49;;;;;;;17.30;10.10;;;3.10;82.10;;;;;;5036091;28;20482;-78
2023/03/07 04:50:18;;;;;;;17.20;8.60;;;3.10;82.20;;;;;;5003869;28;20690;-80
2023/03/07 04:52:43;;;;;;;16.48;8.85;;;3.10;82.30;;;;;;5021264;28;20068;-79
2023/03/07 04:55:09;;;;;;;13.85;7.93;;;3.10;82.20;;;;;;5020241;28;20124;-80
2023/03/07 04:57:35;;;;;;;14.20;8.10;;;3.10;82.20;;;;;;5018904;28;20051;-77
2023/03/07 05:00:01;;;;;;;12.27;7.50;;;3.10;82.30;;;;;;5006317;28;20099;-80
2023/03/07 05:02:26;;;;;;;12.48;7.05;;;3.10;82.30;;;;;;5027116;28;20982;-79
2023/03/07 05:04:52;;;;;;;12.55;7.00;;;3.00;82.30;;;;;;5042740;28;20102;-79
2023/03/07 05:07:17;;;;;;;14.93;7.85;;;3.00;82.40;;;;;;5021606;28;20542;-79
2023/03/07 05:09:43;;;;;;;11.45;6.82;;;3.00;82.40;;;;;;5023380;28;20034;-81
2023/03/07 05:12:09;;;;;;;14.95;7.93;;;3.00;82.50;;;;;;5028120;28;20078;-79
2023/03/07 05:14:34;;;;;;;13.82;7.70;;;3.00;82.60;;;;;;5005998;28;20406;-79
2023/03/07 05:17:00;;;;;;;11.90;6.90;;;3.00;82.60;;;;;;5009695;28;20038;-79
2023/03/07 05:19:25;;;;;;;11.65;6.72;;;3.00;82.70;;;;;;4996520;28;20099;-79
2023/03/07 05:21:51;;;;;;;10.85;6.78;;;3.10;82.80;;;;;;4996535;28;20091;-80
2023/03/07 05:24:17;;;;;;;12.43;7.10;;;3.00;82.80;;;;;;4988122;28;20128;-79
2023/03/07 05:26:43;;;;;;;12.60;6.60;;;3.00;82.80;;;;;;4999467;28;20041;-79
2023/03/07 05:29:08;;;;;;;13.50;6.57;;;3.00;82.90;;;;;;5015942;28;20040;-78
2023/03/07 05:31:35;;;;;;;11.52;7.28;;;3.00;82.90;;;;;;4992457;28;20029;-78
2023/03/07 05:34:01;;;;;;;13.70;6.72;;;3.10;83.00;;;;;;5005668;28;20045;-80
2023/03/07 05:36:27;;;;;;;12.07;7.00;;;3.00;83.10;;;;;;5018339;28;20055;-77
2023/03/07 05:38:55;;;;;;;9.98;6.20;;;3.00;83.10;;;;;;5021369;28;20052;-80
2023/03/07 05:41:20;;;;;;;11.38;6.55;;;3.10;83.20;;;;;;5019293;28;20039;-81
2023/03/07 05:43:46;;;;;;;11.25;6.43;;;3.10;83.30;;;;;;5013720;28;20029;-80
2023/03/07 05:46:11;;;;;;;11.90;6.95;;;3.10;83.30;;;;;;5027261;28;20037;-81
2023/03/07 05:48:37;;;;;;;12.50;7.00;;;3.10;83.40;;;;;;5014910;28;20091;-79
2023/03/07 05:51:03;;;;;;;14.85;7.03;;;3.10;83.40;;;;;;5002300;28;20036;-80
2023/03/07 05:53:28;;;;;;;11.20;6.35;;;3.10;83.40;;;;;;5046310;28;20095;-80
2023/03/07 05:55:54;;;;;;;13.75;7.30;;;3.10;83.50;;;;;;5022970;28;22235;-80
2023/03/07 05:58:19;;;;;;;11.35;6.95;;;3.10;83.50;;;;;;5026570;28;20433;-78
2023/03/07 06:00:45;;;;;;;11.05;6.43;;;3.10;83.60;;;;;;5004634;28;20036;-81
2023/03/07 06:03:10;;;;;;;11.43;6.57;;;3.10;83.60;;;;;;5002202;28;20033;-79
2023/03/07 06:05:36;;;;;;;12.55;7.18;;;3.10;83.60;;;;;;4985003;28;20756;-78
2023/03/07 06:08:02;;;;;;;13.10;6.90;;;3.10;83.60;;;;;;5030132;28;20037;-77
2023/03/07 06:10:28;;;;;;;13.10;7.65;;;3.10;83.60;;;;;;5013407;28;20037;-79
2023/03/07 06:12:53;;;;;;;13.60;8.00;;;3.10;83.70;;;;;;5011522;28;20123;-79
2023/03/07 06:15:19;;;;;;;14.23;6.88;;;3.20;83.80;;;;;;5021587;28;20033;-79
2023/03/07 06:17:45;;;;;;;13.23;6.82;;;3.20;83.80;;;;;;5011383;28;20041;-79
2023/03/07 06:20:11;;;;;;;13.43;7.38;;;3.20;83.80;;;;;;5007186;28;20037;-79
2023/03/07 06:22:37;;;;;;;12.50;7.22;;;3.20;83.90;;;;;;5033718;28;20036;-79
2023/03/07 06:25:06;;;;;;;13.20;7.50;;;3.20;83.90;;;;;;5017993;28;20037;-79
2023/03/07 06:27:35;;;;;;;12.25;6.63;;;3.20;84.00;;;;;;5030294;28;20037;-80
2023/03/07 06:30:01;;;;;;;12.52;6.53;;;3.20;84.10;;;;;;5048235;28;20040;-80
2023/03/07 06:32:26;;;;;;;13.90;7.63;;;3.20;84.00;;;;;;5020645;28;20044;-78
2023/03/07 06:34:52;;;;;;;16.20;8.90;;;3.30;84.00;;;;;;5009683;28;20042;-80
2023/03/07 06:37:17;;;;;;;12.80;7.78;;;3.30;84.00;;;;;;5006342;28;20507;-79
2023/03/07 06:39:44;;;;;;;15.68;8.98;;;3.30;84.00;;;;;;5005524;28;20459;-80
2023/03/07 06:42:09;;;;;;;15.10;8.65;;;3.30;84.00;;;;;;5010005;28;20037;-79
2023/03/07 06:44:35;;;;;;;14.32;8.52;;;3.30;84.10;;;;;;5008889;28;20042;-76
2023/03/07 06:47:01;;;;;;;14.75;7.80;;;3.30;84.10;;;;;;5012354;28;20043;-79
2023/03/07 06:49:26;;;;;;;15.73;8.25;;;3.30;84.10;;;;;;4993395;28;20046;-77
2023/03/07 06:51:52;;;;;;;15.40;8.32;;;3.30;84.10;;;;;;5007789;28;20065;-79
2023/03/07 06:54:17;;;;;;;13.43;7.63;;;3.40;84.20;;;;;;5010756;28;20397;-79
2023/03/07 06:56:43;;;;;;;13.35;8.38;;;3.30;84.20;;;;;;4968080;28;20072;-79
2023/03/07 06:59:09;;;;;;;18.15;9.23;;;3.40;84.30;;;;;;4977045;28;20042;-79
2023/03/07 07:01:35;;;;;;;14.40;8.13;;;3.40;84.20;;;;;;5005506;28;20031;-78
2023/03/07 07:04:00;;;;;;;18.25;10.43;;;3.40;84.20;;;;;;5008601;28;20448;-79
2023/03/07 07:06:26;;;;;;;15.68;9.38;;;3.40;84.20;;;;;;4995134;28;20671;-78
2023/03/07 07:08:55;;;;;;;20.60;10.88;;;3.50;84.30;;;;;;4995914;28;20049;-79
2023/03/07 07:11:21;;;;;;;20.27;9.93;;;3.50;84.40;;;;;;4997890;28;20041;-80
2023/03/07 07:13:47;;;;;;;19.67;10.10;;;3.50;84.30;;;;;;5010204;28;20049;-79
2023/03/07 07:16:12;;;;;;;19.17;10.18;;;3.50;84.30;;;;;;4989905;28;20534;-79
2023/03/07 07:18:38;;;;;;;20.92;11.02;;;3.60;84.30;;;;;;5011105;28;20045;-78
2023/03/07 07:21:04;;;;;;;19.65;11.90;;;3.60;84.30;;;;;;4996565;28;20123;-79
2023/03/07 07:23:29;;;;;;;22.35;11.48;;;3.60;84.40;;;;;;5018139;28;20107;-77
2023/03/07 07:25:55;;;;;;;18.13;10.00;;;3.60;84.30;;;;;;4996703;28;20114;-79
2023/03/07 07:28:21;;;;;;;17.00;9.85;;;3.60;84.20;;;;;;5022362;28;20439;-79
2023/03/07 07:30:46;;;;;;;19.58;10.32;;;3.60;84.60;;;;;;4996772;28;20679;-77
2023/03/07 07:33:12;;;;;;;17.50;10.43;;;3.70;84.30;;;;;;4998682;28;20104;-78
2023/03/07 07:35:38;;;;;;;17.67;10.20;;;3.70;85.00;;;;;;5026926;28;20428;-80
2023/03/07 07:38:03;;;;;;;19.30;9.98;;;3.70;85.00;;;;;;5027925;28;20041;-80
2023/03/07 07:40:29;;;;;;;18.33;10.60;;;3.70;84.20;;;;;;5016993;28;20041;-77
2023/03/07 07:42:54;;;;;;;20.08;9.95;;;3.80;84.20;;;;;;5034251;28;20045;-79
2023/03/07 07:45:21;;;;;;;18.27;9.73;;;3.80;84.20;;;;;;5027772;28;20064;-79
2023/03/07 07:47:48;;;;;;;17.42;9.82;;;3.80;84.10;;;;;;5004438;28;20503;-80
2023/03/07 07:50:17;;;;;;;16.88;9.75;;;3.80;84.10;;;;;;5032151;28;20042;-79
2023/03/07 07:52:42;;;;;;;18.42;10.00;;;3.90;84.10;;;;;;5004912;28;20033;-79
2023/03/07 07:55:09;;;;;;;18.75;10.00;;;3.90;84.10;;;;;;5013306;28;20764;-79
2023/03/07 07:57:35;;;;;;;18.42;10.18;;;3.90;84.10;;;;;;4999374;28;20038;-77
2023/03/07 08:00:01;;;;;;;17.00;9.65;;;3.90;84.00;;;;;;5031884;28;20094;-78
2023/03/07 08:02:27;;;;;;;18.80;9.98;;;4.00;84.00;;;;;;5020201;28;20034;-78
2023/03/07 08:04:53;;;;;;;16.45;9.85;;;4.00;84.00;;;;;;5027571;28;20047;-78
2023/03/07 08:07:18;;;;;;;17.25;9.55;;;4.00;84.00;;;;;;5019523;28;20038;-80
2023/03/07 08:09:44;;;;;;;21.02;11.35;;;4.10;83.90;;;;;;5015794;28;20067;-79
2023/03/07 08:12:10;;;;;;;19.40;9.82;;;4.10;83.80;;;;;;5018318;28;20034;-79
2023/03/07 08:14:36;;;;;;;19.60;10.57;;;4.10;83.80;;;;;;4980333;28;20061;-78
2023/03/07 08:17:02;;;;;;;14.88;9.30;;;4.20;83.80;;;;;;5023485;28;20723;-79
2023/03/07 08:19:27;;;;;;;17.27;10.25;;;4.20;83.80;;;;;;5016961;28;20103;-78
2023/03/07 08:21:53;;;;;;;19.85;9.80;;;4.30;83.80;;;;;;5008883;28;20033;-79
2023/03/07 08:24:18;;;;;;;16.25;9.30;;;4.30;83.70;;;;;;5017268;28;20633;-78
2023/03/07 08:26:44;;;;;;;15.32;9.10;;;4.40;83.70;;;;;;5032470;28;20893;-80
2023/03/07 08:29:09;;;;;;;14.85;8.82;;;4.40;83.60;;;;;;5016972;28;20068;-80
2023/03/07 08:31:35;;;;;;;14.48;8.75;;;4.50;83.60;;;;;;5019985;28;20128;-77
2023/03/07 08:34:00;;;;;;;14.55;8.75;;;4.60;83.50;;;;;;5027797;28;20116;-79
2023/03/07 08:36:26;;;;;;;16.58;8.43;;;4.70;83.50;;;;;;5032035;28;20040;-79
2023/03/07 08:38:51;;;;;;;22.15;11.50;;;4.70;83.40;;;;;;5036775;28;20044;-79
2023/03/07 08:41:17;;;;;;;18.77;9.55;;;4.80;83.30;;;;;;5049770;28;20123;-78
2023/03/07 08:43:43;;;;;;;16.58;9.50;;;4.90;83.20;;;;;;5036151;28;20051;-79
2023/03/07 08:46:08;;;;;;;17.48;8.65;;;4.90;83.20;;;;;;5035366;28;20119;-79
2023/03/07 08:48:34;;;;;;;18.48;10.13;;;5.00;83.10;;;;;;5051573;28;20173;-79
2023/03/07 08:51:05;;;;;;;15.20;8.82;;;5.10;83.00;;;;;;5016605;28;20084;-77
2023/03/07 08:53:30;;;;;;;13.38;7.82;;;5.20;82.90;;;;;;5001542;28;20043;-79
2023/03/07 08:55:56;;;;;;;14.50;8.25;;;5.20;82.70;;;;;;5045919;28;20033;-79
2023/03/07 08:58:21;;;;;;;13.32;8.30;;;5.30;82.70;;;;;;5033216;28;20060;-77
2023/03/07 09:00:47;;;;;;;13.30;7.80;;;5.50;82.90;;;;;;5034628;28;20622;-81
2023/03/07 09:03:12;;;;;;;12.15;7.13;;;5.60;82.70;;;;;;5033054;28;20060;-80
2023/03/07 09:05:38;;;;;;;14.13;6.45;;;5.80;83.40;;;;;;5034656;28;20117;-80
2023/03/07 09:08:05;;;;;;;11.88;7.05;;;6.00;82.40;;;;;;5055842;28;20048;-81
2023/03/07 09:10:30;;;;;;;13.43;7.15;;;6.20;82.30;;;;;;5022916;28;20043;-78
2023/03/07 09:12:56;;;;;;;11.75;6.75;;;6.40;82.10;;;;;;5043194;28;20040;-80
2023/03/07 09:15:21;;;;;;;12.60;7.13;;;6.50;81.80;;;;;;5040709;28;20108;-78
2023/03/07 09:17:47;;;;;;;11.05;6.97;;;6.70;81.40;;;;;;5027817;28;20110;-79
2023/03/07 09:20:15;;;;;;;11.50;6.88;;;6.80;81.20;;;;;;5043942;28;20032;-79
2023/03/07 09:22:40;;;;;;;13.38;6.63;;;6.90;81.00;;;;;;5024677;28;20032;-80
2023/03/07 09:25:06;;;;;;;12.45;7.80;;;7.00;80.70;;;;;;5040922;28;20044;-81
2023/03/07 09:27:32;;;;;;;12.82;7.45;;;7.10;80.30;;;;;;5033819;28;20033;-80
2023/03/07 09:29:57;;;;;;;16.33;7.95;;;7.10;80.10;;;;;;5015656;28;20156;-79
2023/03/07 09:32:23;;;;;;;16.42;7.47;;;7.10;79.90;;;;;;5012770;28;20044;-80
2023/03/07 09:34:48;;;;;;;13.57;6.63;;;7.20;79.70;;;;;;4993359;28;20052;-80
2023/03/07 09:37:14;;;;;;;11.70;6.43;;;7.20;79.50;;;;;;4984710;28;20041;-77
2023/03/07 09:39:39;;;;;;;12.20;6.82;;;7.30;79.30;;;;;;4998011;28;20040;-81
2023/03/07 09:42:23;;;;;;;11.32;5.90;;;7.40;79.20;;;;;;4990678;28;20050;-80
2023/03/07 09:44:53;;;;;;;9.77;6.15;;;7.40;78.60;;;;;;4998005;28;20045;-79
2023/03/07 09:47:37;;;;;;;8.90;5.90;;;7.50;78.80;;;;;;4992642;28;20667;-81
2023/03/07 09:50:06;;;;;;;8.13;5.30;;;7.50;78.30;;;;;;5000206;28;20136;-78
2023/03/07 09:52:33;;;;;;;7.57;5.38;;;7.60;78.30;;;;;;5004089;28;20652;-80
2023/03/07 09:55:00;;;;;;;7.45;4.68;;;7.70;77.90;;;;;;5005215;28;20033;-80
2023/03/07 09:57:33;;;;;;;9.30;5.07;;;7.70;77.60;;;;;;4999631;28;20064;-80
2023/03/07 10:00:00;;;;;;;8.90;4.45;;;7.80;77.40;;;;;;5002028;28;20447;-79
2023/03/07 10:02:31;;;;;;;7.38;4.72;;;7.90;77.30;;;;;;5003571;28;20531;-80
2023/03/07 10:05:12;;;;;;;9.82;5.10;;;8.00;76.80;;;;;;5005677;28;20045;-79
2023/03/07 10:07:38;;;;;;;6.28;4.00;;;8.10;76.70;;;;;;5015884;28;20063;-80
2023/03/07 10:10:17;;;;;;;8.60;4.55;;;8.10;76.10;;;;;;5018007;28;20148;-80
2023/03/07 10:12:58;;;;;;;7.50;4.28;;;8.20;76.00;;;;;;5013786;28;20048;-79
2023/03/07 10:15:24;;;;;;;11.82;5.38;;;8.40;75.80;;;;;;5016063;28;20033;-80
2023/03/07 10:18:14;;;;;;;7.43;4.78;;;8.60;75.90;;;;;;5017853;28;20048;-79
2023/03/07 10:21:10;;;;;;;7.07;4.60;;;8.80;75.10;;;;;;5005995;28;20041;-80
2023/03/07 10:23:58;;;;;;;7.65;3.78;;;9.00;74.60;;;;;;5013526;28;20088;-80
2023/03/07 10:26:34;;;;;;;5.40;3.33;;;9.20;74.10;;;;;;5012746;28;20655;-79
2023/03/07 10:29:01;;;;;;;5.47;3.65;;;9.40;73.60;;;;;;4995754;28;21938;-79
2023/03/07 10:31:33;;;;;;;5.97;3.83;;;9.50;73.30;;;;;;5016402;28;20026;-80
2023/03/07 10:33:59;;;;;;;6.40;3.45;;;9.50;72.80;;;;;;5022644;28;20042;-80
2023/03/07 10:36:34;;;;;;;4.65;3.20;;;9.50;72.30;;;;;;5019514;28;20041;-80
2023/03/07 10:39:20;;;;;;;5.25;3.28;;;9.60;71.70;;;;;;5011483;28;20106;-80
2023/03/07 10:41:46;;;;;;;4.30;3.20;;;9.60;70.90;;;;;;5012300;28;20029;-80
2023/03/07 10:44:14;;;;;;;4.40;3.17;;;9.50;71.10;;;;;;5027498;28;20025;-79
2023/03/07 10:46:40;;;;;;;6.15;3.38;;;9.50;70.80;;;;;;5004775;28;20040;-78
2023/03/07 10:49:05;;;;;;;5.45;3.25;;;9.50;70.60;;;;;;5030128;28;20048;-80
2023/03/07 10:51:54;;;;;;;4.97;3.55;;;9.40;70.40;;;;;;5034335;28;20048;-79
2023/03/07 10:54:21;;;;;;;5.30;3.60;;;9.40;70.00;;;;;;5003149;28;20575;-80
2023/03/07 10:57:01;;;;;;;5.78;3.35;;;9.40;69.50;;;;;;4989936;28;20037;-80
2023/03/07 10:59:27;;;;;;;5.38;3.70;;;9.30;68.80;;;;;;5025920;28;20032;-79
2023/03/07 11:01:54;;;;;;;6.43;3.58;;;9.30;69.40;;;;;;5027304;28;20037;-79
2023/03/07 11:04:21;;;;;;;4.30;3.33;;;9.30;68.80;;;;;;5027665;28;20098;-78
2023/03/07 11:06:49;;;;;;;8.15;3.80;;;9.20;68.70;;;;;;5033686;28;20044;-80
2023/03/07 11:09:30;;;;;;;6.90;3.35;;;9.20;68.80;;;;;;5037026;28;20041;-80
2023/03/07 11:11:58;;;;;;;6.85;3.83;;;9.20;68.40;;;;;;5034844;28;20033;-78
2023/03/07 11:14:27;;;;;;;7.45;3.88;;;9.20;68.60;;;;;;5039285;28;20116;-80
2023/03/07 11:16:52;;;;;;;5.18;3.58;;;9.20;68.50;;;;;;5000229;28;20089;-79
2023/03/07 11:19:30;;;;;;;4.75;3.10;;;9.20;68.30;;;;;;5039002;28;22863;-77
2023/03/07 11:21:56;;;;;;;5.57;3.72;;;9.20;67.60;;;;;;5029270;28;20106;-79
2023/03/07 11:24:25;;;;;;;7.65;3.28;;;9.20;67.90;;;;;;5003508;28;20486;-79
2023/03/07 11:26:54;;;;;;;5.05;3.35;;;9.20;67.70;;;;;;5017475;28;20033;-79
2023/03/07 11:29:20;;;;;;;4.72;3.20;;;9.30;67.60;;;;;;5026044;28;20172;-79
2023/03/07 11:31:49;;;;;;;6.38;3.67;;;9.40;67.70;;;;;;5006616;28;20582;-79
2023/03/07 11:34:34;;;;;;;6.53;3.75;;;9.50;68.60;;;;;;5027914;28;20044;-79
2023/03/07 11:37:14;;;;;;;6.10;3.60;;;9.60;67.40;;;;;;5015120;28;20037;-77
2023/03/07 11:40:08;;;;;;;4.50;2.83;;;9.60;66.30;;;;;;5021983;28;20060;-79
2023/03/07 11:42:37;;;;;;;5.22;3.38;;;9.60;66.80;;;;;;5013668;28;20033;-79
2023/03/07 11:45:07;;;;;;;6.25;3.67;;;9.60;66.90;;;;;;5004108;28;20111;-79
2023/03/07 11:47:57;;;;;;;5.28;3.65;;;9.70;66.90;;;;;;5033901;28;20022;-79
2023/03/07 11:50:29;;;;;;;6.30;3.67;;;9.80;66.10;;;;;;5029560;28;20045;-80
2023/03/07 11:53:25;;;;;;;6.00;3.33;;;9.90;66.20;;;;;;4996273;28;20046;-78
2023/03/07 11:56:17;;;;;;;4.30;3.30;;;10.00;65.70;;;;;;5031419;28;20037;-79
2023/03/07 11:59:02;;;;;;;5.43;3.53;;;10.10;65.60;;;;;;5030656;28;20049;-78
2023/03/07 12:01:47;;;;;;;5.20;3.65;;;10.20;65.80;;;;;;5032514;28;20779;-80
2023/03/07 12:04:51;;;;;;;6.78;3.28;;;10.30;65.50;;;;;;5017420;28;20051;-79
2023/03/07 12:07:34;;;;;;;4.30;2.97;;;10.20;64.20;;;;;;5044230;28;20036;-80
2023/03/07 12:10:09;;;;;;;6.60;3.70;;;10.30;65.10;;;;;;5039744;28;20044;-79
2023/03/07 12:13:06;;;;;;;7.10;3.60;;;10.30;64.70;;;;;;5040904;28;20033;-78
2023/03/07 12:15:35;;;;;;;6.88;4.10;;;10.50;65.10;;;;;;4940945;28;21718;-79
2023/03/07 12:18:10;;;;;;;6.63;3.88;;;10.70;65.00;;;;;;5041971;28;20032;-79
2023/03/07 12:20:51;;;;;;;4.72;3.47;;;10.80;64.80;;;;;;5034047;28;20033;-78
2023/03/07 12:23:38;;;;;;;6.70;4.20;;;11.00;64.10;;;;;;4995125;28;20589;-79
2023/03/07 12:26:39;;;;;;;5.57;3.78;;;11.10;63.00;;;;;;5033251;28;20036;-81
2023/03/07 12:29:25;;;;;;;7.57;4.05;;;11.10;62.80;;;;;;5033749;28;20044;-80
2023/03/07 12:31:51;;;;;;;7.25;3.55;;;11.10;62.90;;;;;;5022112;28;20064;-79
2023/03/07 12:34:38;;;;;;;5.90;3.58;;;11.10;62.90;;;;;;4998675;28;20041;-80
2023/03/07 12:37:06;;;;;;;5.32;3.55;;;11.00;61.60;;;;;;5017309;28;20056;-77
2023/03/07 12:39:36;;;;;;;4.75;3.30;;;11.00;62.50;;;;;;5005121;28;20029;-80
2023/03/07 12:42:15;;;;;;;5.45;3.80;;;11.10;61.90;;;;;;5015679;28;20038;-80
2023/03/07 12:44:50;;;;;;;17.02;4.40;;;11.00;61.80;;;;;;5020979;28;20033;-79
2023/03/07 12:47:43;;;;;;;6.32;3.50;;;11.10;61.80;;;;;;5015910;28;20046;-79
2023/03/07 12:50:21;;;;;;;8.43;4.03;;;11.10;61.30;;;;;;5036863;28;20087;-80
2023/03/07 12:52:59;;;;;;;6.60;3.90;;;11.20;61.50;;;;;;5013675;28;20149;-80